sensor_id;sensor_type;location;lat;lon;timestamp;pressure;altitude;pressure_sealevel;temperature;humidity
76114;BME280;64845;53.086;5.834;2023-04-15T00:00:13;101095.53;;;7.68;64.41
76114;BME280;64845;53.086;5.834;2023-04-15T00:02:40;101091.16;;;7.66;64.84
76114;BME280;64845;53.086;5.834;2023-04-15T00:05:06;101098.31;;;7.64;64.63
76114;BME280;64845;53.086;5.834;2023-04-15T00:07:31;101089.47;;;7.62;64.83
76114;BME280;64845;53.086;5.834;2023-04-15T00:09:57;101092.19;;;7.60;64.89
76114;BME280;64845;53.086;5.834;2023-04-15T00:12:24;101086.03;;;7.58;65.06
76114;BME280;64845;53.086;5.834;2023-04-15T00:14:49;101093.13;;;7.57;64.97
76114;BME280;64845;53.086;5.834;2023-04-15T00:17:15;101091.38;;;7.56;65.12
76114;BME280;64845;53.086;5.834;2023-04-15T00:19:41;101088.81;;;7.53;64.92
76114;BME280;64845;53.086;5.834;2023-04-15T00:22:06;101087.97;;;7.51;65.40
76114;BME280;64845;53.086;5.834;2023-04-15T00:24:32;101091.53;;;7.50;65.51
76114;BME280;64845;53.086;5.834;2023-04-15T00:26:58;101094.19;;;7.50;65.37
76114;BME280;64845;53.086;5.834;2023-04-15T00:29:24;101098.66;;;7.48;65.34
76114;BME280;64845;53.086;5.834;2023-04-15T00:31:49;101086.28;;;7.47;65.70
76114;BME280;64845;53.086;5.834;2023-04-15T00:34:15;101090.75;;;7.45;65.71
76114;BME280;64845;53.086;5.834;2023-04-15T00:36:40;101095.22;;;7.43;65.74
76114;BME280;64845;53.086;5.834;2023-04-15T00:39:06;101089.94;;;7.41;65.73
76114;BME280;64845;53.086;5.834;2023-04-15T00:41:31;101101.47;;;7.40;65.99
76114;BME280;64845;53.086;5.834;2023-04-15T00:43:58;101100.59;;;7.40;66.10
76114;BME280;64845;53.086;5.834;2023-04-15T00:46:26;101103.25;;;7.40;65.88
76114;BME280;64845;53.086;5.834;2023-04-15T00:48:53;101105.97;;;7.37;65.86
76114;BME280;64845;53.086;5.834;2023-04-15T00:51:19;101107.81;;;7.35;65.97
76114;BME280;64845;53.086;5.834;2023-04-15T00:53:45;101100.75;;;7.32;66.02
76114;BME280;64845;53.086;5.834;2023-04-15T00:56:10;101103.44;;;7.31;66.32
76114;BME280;64845;53.086;5.834;2023-04-15T00:58:36;101098.16;;;7.29;66.21
76114;BME280;64845;53.086;5.834;2023-04-15T01:01:02;101098.19;;;7.28;66.34
76114;BME280;64845;53.086;5.834;2023-04-15T01:03:28;101098.22;;;7.26;66.31
76114;BME280;64845;53.086;5.834;2023-04-15T01:05:54;101097.31;;;7.27;66.17
76114;BME280;64845;53.086;5.834;2023-04-15T01:08:26;101107.13;;;7.25;66.43
76114;BME280;64845;53.086;5.834;2023-04-15T01:10:54;101105.38;;;7.22;66.40
76114;BME280;64845;53.086;5.834;2023-04-15T01:13:22;101104.53;;;7.20;66.46
76114;BME280;64845;53.086;5.834;2023-04-15T01:15:48;101109.91;;;7.19;66.58
76114;BME280;64845;53.086;5.834;2023-04-15T01:18:13;101107.25;;;7.17;66.61
76114;BME280;64845;53.086;5.834;2023-04-15T01:20:39;101107.28;;;7.16;66.54
76114;BME280;64845;53.086;5.834;2023-04-15T01:23:05;101112.66;;;7.13;66.56
76114;BME280;64845;53.086;5.834;2023-04-15T01:25:32;101107.34;;;7.13;66.76
76114;BME280;64845;53.086;5.834;2023-04-15T01:27:58;101112.72;;;7.11;66.86
76114;BME280;64845;53.086;5.834;2023-04-15T01:30:23;101105.66;;;7.10;66.64
76114;BME280;64845;53.086;5.834;2023-04-15T01:32:50;101105.69;;;7.07;66.95
76114;BME280;64845;53.086;5.834;2023-04-15T01:35:16;101112.81;;;7.05;67.33
76114;BME280;64845;53.086;5.834;2023-04-15T01:37:42;101118.19;;;7.03;67.07
76114;BME280;64845;53.086;5.834;2023-04-15T01:40:08;101118.22;;;7.00;67.15
76114;BME280;64845;53.086;5.834;2023-04-15T01:42:35;101107.66;;;6.97;67.02
76114;BME280;64845;53.086;5.834;2023-04-15T01:45:01;101113.88;;;6.96;67.09
76114;BME280;64845;53.086;5.834;2023-04-15T01:47:27;101113.91;;;6.94;67.11
76114;BME280;64845;53.086;5.834;2023-04-15T01:49:52;101114.84;;;6.92;67.42
76114;BME280;64845;53.086;5.834;2023-04-15T01:52:17;101113.13;;;6.89;67.25
76114;BME280;64845;53.086;5.834;2023-04-15T01:54:43;101114.88;;;6.89;67.33
76114;BME280;64845;53.086;5.834;2023-04-15T01:57:09;101121.16;;;6.86;67.49
76114;BME280;64845;53.086;5.834;2023-04-15T01:59:34;101120.28;;;6.84;67.59
76114;BME280;64845;53.086;5.834;2023-04-15T02:02:00;101119.50;;;6.80;67.58
76114;BME280;64845;53.086;5.834;2023-04-15T02:04:26;101120.38;;;6.79;67.71
76114;BME280;64845;53.086;5.834;2023-04-15T02:06:52;101123.94;;;6.78;67.51
76114;BME280;64845;53.086;5.834;2023-04-15T02:09:17;101124.00;;;6.75;67.51
76114;BME280;64845;53.086;5.834;2023-04-15T02:11:45;101128.44;;;6.75;67.80
76114;BME280;64845;53.086;5.834;2023-04-15T02:14:10;101135.56;;;6.73;67.95
76114;BME280;64845;53.086;5.834;2023-04-15T02:16:35;101131.16;;;6.70;67.69
76114;BME280;64845;53.086;5.834;2023-04-15T02:19:01;101141.81;;;6.69;67.88
76114;BME280;64845;53.086;5.834;2023-04-15T02:21:28;101136.50;;;6.67;67.97
76114;BME280;64845;53.086;5.834;2023-04-15T02:23:53;101133.88;;;6.67;68.05
76114;BME280;64845;53.086;5.834;2023-04-15T02:26:19;101135.66;;;6.67;68.25
76114;BME280;64845;53.086;5.834;2023-04-15T02:28:46;101141.00;;;6.65;68.20
76114;BME280;64845;53.086;5.834;2023-04-15T02:31:12;101142.75;;;6.64;68.21
76114;BME280;64845;53.086;5.834;2023-04-15T02:33:37;101152.53;;;6.64;68.28
76114;BME280;64845;53.086;5.834;2023-04-15T02:36:03;101156.09;;;6.61;68.27
76114;BME280;64845;53.086;5.834;2023-04-15T02:38:29;101162.28;;;6.60;68.17
76114;BME280;64845;53.086;5.834;2023-04-15T02:40:56;101163.19;;;6.59;68.29
76114;BME280;64845;53.086;5.834;2023-04-15T02:43:21;101157.03;;;6.57;68.58
76114;BME280;64845;53.086;5.834;2023-04-15T02:45:47;101160.63;;;6.56;68.51
76114;BME280;64845;53.086;5.834;2023-04-15T02:48:13;101160.63;;;6.55;68.74
76114;BME280;64845;53.086;5.834;2023-04-15T02:50:38;101157.09;;;6.54;68.50
76114;BME280;64845;53.086;5.834;2023-04-15T02:53:05;101173.94;;;6.53;68.67
76114;BME280;64845;53.086;5.834;2023-04-15T02:55:30;101166.91;;;6.49;68.64
76114;BME280;64845;53.086;5.834;2023-04-15T02:57:56;101177.53;;;6.49;68.81
76114;BME280;64845;53.086;5.834;2023-04-15T03:00:24;101180.19;;;6.49;68.74
76114;BME280;64845;53.086;5.834;2023-04-15T03:02:50;101187.31;;;6.45;68.89
76114;BME280;64845;53.086;5.834;2023-04-15T03:05:21;101189.09;;;6.45;69.13
76114;BME280;64845;53.086;5.834;2023-04-15T03:07:49;101192.63;;;6.44;69.03
76114;BME280;64845;53.086;5.834;2023-04-15T03:10:14;101197.94;;;6.44;69.06
76114;BME280;64845;53.086;5.834;2023-04-15T03:12:39;101187.31;;;6.44;68.94
76114;BME280;64845;53.086;5.834;2023-04-15T03:15:06;101193.53;;;6.43;69.18
76114;BME280;64845;53.086;5.834;2023-04-15T03:17:32;101197.09;;;6.42;69.33
76114;BME280;64845;53.086;5.834;2023-04-15T03:19:57;101204.19;;;6.41;69.22
76114;BME280;64845;53.086;5.834;2023-04-15T03:22:23;101207.75;;;6.39;69.06
76114;BME280;64845;53.086;5.834;2023-04-15T03:24:49;101207.78;;;6.37;69.33
76114;BME280;64845;53.086;5.834;2023-04-15T03:27:14;101206.91;;;6.35;69.36
76114;BME280;64845;53.086;5.834;2023-04-15T03:29:40;101208.75;;;6.31;69.36
76114;BME280;64845;53.086;5.834;2023-04-15T03:32:05;101213.16;;;6.31;69.36
76114;BME280;64845;53.086;5.834;2023-04-15T03:34:30;101209.66;;;6.29;69.56
76114;BME280;64845;53.086;5.834;2023-04-15T03:36:56;101221.16;;;6.28;69.47
76114;BME280;64845;53.086;5.834;2023-04-15T03:39:22;101217.69;;;6.26;69.52
76114;BME280;64845;53.086;5.834;2023-04-15T03:41:47;101218.59;;;6.25;69.75
76114;BME280;64845;53.086;5.834;2023-04-15T03:44:12;101218.59;;;6.23;69.67
76114;BME280;64845;53.086;5.834;2023-04-15T03:46:38;101228.34;;;6.21;69.79
76114;BME280;64845;53.086;5.834;2023-04-15T03:49:05;101219.56;;;6.17;69.79
76114;BME280;64845;53.086;5.834;2023-04-15T03:51:31;101231.97;;;6.17;69.87
76114;BME280;64845;53.086;5.834;2023-04-15T03:53:56;101230.19;;;6.16;69.83
76114;BME280;64845;53.086;5.834;2023-04-15T03:56:23;101227.56;;;6.16;69.80
76114;BME280;64845;53.086;5.834;2023-04-15T03:58:48;101234.59;;;6.15;69.91
76114;BME280;64845;53.086;5.834;2023-04-15T04:01:14;101239.91;;;6.15;69.96
76114;BME280;64845;53.086;5.834;2023-04-15T04:03:40;101239.00;;;6.16;70.15
76114;BME280;64845;53.086;5.834;2023-04-15T04:06:06;101242.59;;;6.14;70.12
76114;BME280;64845;53.086;5.834;2023-04-15T04:08:32;101244.34;;;6.13;70.23
76114;BME280;64845;53.086;5.834;2023-04-15T04:10:57;101247.00;;;6.13;69.72
76114;BME280;64845;53.086;5.834;2023-04-15T04:13:23;101251.44;;;6.11;70.15
76114;BME280;64845;53.086;5.834;2023-04-15T04:15:48;101250.59;;;6.09;70.26
76114;BME280;64845;53.086;5.834;2023-04-15T04:18:13;101256.81;;;6.07;69.96
76114;BME280;64845;53.086;5.834;2023-04-15T04:20:39;101255.06;;;6.05;70.32
76114;BME280;64845;53.086;5.834;2023-04-15T04:23:04;101248.91;;;6.03;70.11
76114;BME280;64845;53.086;5.834;2023-04-15T04:25:30;101258.66;;;6.01;70.42
76114;BME280;64845;53.086;5.834;2023-04-15T04:27:55;101257.78;;;6.01;70.33
76114;BME280;64845;53.086;5.834;2023-04-15T04:30:21;101260.41;;;6.02;70.49
76114;BME280;64845;53.086;5.834;2023-04-15T04:32:46;101260.41;;;6.02;70.63
76114;BME280;64845;53.086;5.834;2023-04-15T04:35:11;101263.91;;;6.04;70.53
76114;BME280;64845;53.086;5.834;2023-04-15T04:37:37;101267.47;;;6.03;70.37
76114;BME280;64845;53.086;5.834;2023-04-15T04:40:02;101275.41;;;6.03;70.79
76114;BME280;64845;53.086;5.834;2023-04-15T04:42:28;101269.22;;;6.04;70.72
76114;BME280;64845;53.086;5.834;2023-04-15T04:44:54;101272.75;;;6.03;70.48
76114;BME280;64845;53.086;5.834;2023-04-15T04:47:19;101271.00;;;6.04;70.91
76114;BME280;64845;53.086;5.834;2023-04-15T04:49:45;101269.25;;;6.03;70.70
76114;BME280;64845;53.086;5.834;2023-04-15T04:52:10;101283.41;;;6.00;70.76
76114;BME280;64845;53.086;5.834;2023-04-15T04:54:36;101287.81;;;6.01;70.93
76114;BME280;64845;53.086;5.834;2023-04-15T04:57:01;101286.06;;;6.00;70.78
76114;BME280;64845;53.086;5.834;2023-04-15T04:59:27;101294.00;;;6.00;71.09
76114;BME280;64845;53.086;5.834;2023-04-15T05:01:52;101291.34;;;6.00;70.86
76114;BME280;64845;53.086;5.834;2023-04-15T05:04:17;101296.66;;;6.00;71.02
76114;BME280;64845;53.086;5.834;2023-04-15T05:06:43;101296.66;;;6.00;71.18
76114;BME280;64845;53.086;5.834;2023-04-15T05:09:08;101298.44;;;6.00;70.97
76114;BME280;64845;53.086;5.834;2023-04-15T05:11:34;101308.16;;;6.01;71.00
76114;BME280;64845;53.086;5.834;2023-04-15T05:13:59;101301.97;;;6.00;71.09
76114;BME280;64845;53.086;5.834;2023-04-15T05:16:26;101298.41;;;6.01;71.13
76114;BME280;64845;53.086;5.834;2023-04-15T05:18:51;101308.13;;;5.99;71.04
76114;BME280;64845;53.086;5.834;2023-04-15T05:21:17;101315.22;;;6.00;71.30
76114;BME280;64845;53.086;5.834;2023-04-15T05:23:42;101303.72;;;5.98;71.17
76114;BME280;64845;53.086;5.834;2023-04-15T05:26:08;101316.06;;;5.99;71.40
76114;BME280;64845;53.086;5.834;2023-04-15T05:28:33;101309.91;;;5.99;71.21
76114;BME280;64845;53.086;5.834;2023-04-15T05:30:59;101320.53;;;6.00;71.33
76114;BME280;64845;53.086;5.834;2023-04-15T05:33:24;101320.53;;;6.00;71.38
76114;BME280;64845;53.086;5.834;2023-04-15T05:35:50;101320.53;;;6.02;71.36
76114;BME280;64845;53.086;5.834;2023-04-15T05:38:15;101315.19;;;6.05;71.40
76114;BME280;64845;53.086;5.834;2023-04-15T05:40:41;101325.72;;;6.08;71.69
76114;BME280;64845;53.086;5.834;2023-04-15T05:43:06;101328.38;;;6.08;71.66
76114;BME280;64845;53.086;5.834;2023-04-15T05:45:32;101332.81;;;6.08;71.63
76114;BME280;64845;53.086;5.834;2023-04-15T05:47:57;101337.22;;;6.09;71.56
76114;BME280;64845;53.086;5.834;2023-04-15T05:50:23;101341.59;;;6.11;71.50
76114;BME280;64845;53.086;5.834;2023-04-15T05:52:48;101335.41;;;6.12;71.56
76114;BME280;64845;53.086;5.834;2023-04-15T05:55:14;101338.94;;;6.13;71.59
76114;BME280;64845;53.086;5.834;2023-04-15T05:57:39;101342.44;;;6.16;71.79
76114;BME280;64845;53.086;5.834;2023-04-15T06:00:05;101351.22;;;6.20;71.65
76114;BME280;64845;53.086;5.834;2023-04-15T06:02:30;101350.28;;;6.24;71.95
76114;BME280;64845;53.086;5.834;2023-04-15T06:04:56;101347.59;;;6.27;71.94
76114;BME280;64845;53.086;5.834;2023-04-15T06:07:22;101349.31;;;6.31;71.85
76114;BME280;64845;53.086;5.834;2023-04-15T06:09:48;101362.50;;;6.36;71.84
76114;BME280;64845;53.086;5.834;2023-04-15T06:12:14;101366.88;;;6.40;71.86
76114;BME280;64845;53.086;5.834;2023-04-15T06:14:40;101372.13;;;6.45;71.99
76114;BME280;64845;53.086;5.834;2023-04-15T06:17:05;101377.34;;;6.51;72.07
76114;BME280;64845;53.086;5.834;2023-04-15T06:19:31;101384.34;;;6.57;72.20
76114;BME280;64845;53.086;5.834;2023-04-15T06:21:57;101384.28;;;6.61;72.21
76114;BME280;64845;53.086;5.834;2023-04-15T06:24:22;101381.50;;;6.69;72.40
76114;BME280;64845;53.086;5.834;2023-04-15T06:26:48;101387.66;;;6.76;72.35
76114;BME280;64845;53.086;5.834;2023-04-15T06:29:13;101388.44;;;6.83;72.36
76114;BME280;64845;53.086;5.834;2023-04-15T06:31:39;101379.44;;;6.90;72.48
76114;BME280;64845;53.086;5.834;2023-04-15T06:34:04;101395.25;;;6.98;72.70
76114;BME280;64845;53.086;5.834;2023-04-15T06:36:30;101389.88;;;7.05;72.51
76114;BME280;64845;53.086;5.834;2023-04-15T06:38:56;101390.59;;;7.14;72.68
76114;BME280;64845;53.086;5.834;2023-04-15T06:41:22;101400.25;;;7.21;72.54
76114;BME280;64845;53.086;5.834;2023-04-15T06:43:47;101393.94;;;7.26;72.75
76114;BME280;64845;53.086;5.834;2023-04-15T06:46:12;101404.50;;;7.31;72.82
76114;BME280;64845;53.086;5.834;2023-04-15T06:48:38;101414.13;;;7.38;72.77
76114;BME280;64845;53.086;5.834;2023-04-15T06:51:03;101414.03;;;7.43;72.76
76114;BME280;64845;53.086;5.834;2023-04-15T06:53:29;101416.59;;;7.49;72.80
76114;BME280;64845;53.086;5.834;2023-04-15T06:55:54;101417.38;;;7.56;73.09
76114;BME280;64845;53.086;5.834;2023-04-15T06:58:20;101417.28;;;7.62;73.28
76114;BME280;64845;53.086;5.834;2023-04-15T07:00:46;101427.81;;;7.67;73.08
76114;BME280;64845;53.086;5.834;2023-04-15T07:03:12;101433.03;;;7.73;72.96
76114;BME280;64845;53.086;5.834;2023-04-15T07:05:38;101436.47;;;7.78;72.90
76114;BME280;64845;53.086;5.834;2023-04-15T07:08:04;101436.41;;;7.83;72.97
76114;BME280;64845;53.086;5.834;2023-04-15T07:10:29;101438.97;;;7.88;72.90
76114;BME280;64845;53.086;5.834;2023-04-15T07:12:55;101443.34;;;7.92;72.82
76114;BME280;64845;53.086;5.834;2023-04-15T07:15:21;101445.91;;;7.95;73.17
76114;BME280;64845;53.086;5.834;2023-04-15T07:17:47;101443.16;;;8.01;72.68
76114;BME280;64845;53.086;5.834;2023-04-15T07:20:13;101450.13;;;8.07;72.90
76114;BME280;64845;53.086;5.834;2023-04-15T07:22:38;101447.34;;;8.14;72.66
76114;BME280;64845;53.086;5.834;2023-04-15T07:25:04;101448.97;;;8.22;73.28
76114;BME280;64845;53.086;5.834;2023-04-15T07:27:30;101446.16;;;8.29;72.93
76114;BME280;64845;53.086;5.834;2023-04-15T07:29:56;101453.09;;;8.38;72.93
76114;BME280;64845;53.086;5.834;2023-04-15T07:32:22;101450.28;;;8.46;73.17
76114;BME280;64845;53.086;5.834;2023-04-15T07:34:47;101457.22;;;8.56;73.01
76114;BME280;64845;53.086;5.834;2023-04-15T07:37:14;101456.13;;;8.65;73.00
76114;BME280;64845;53.086;5.834;2023-04-15T07:39:39;101454.13;;;8.76;73.01
76114;BME280;64845;53.086;5.834;2023-04-15T07:42:05;101461.91;;;8.86;72.45
76114;BME280;64845;53.086;5.834;2023-04-15T07:44:30;101456.41;;;8.94;72.43
76114;BME280;64845;53.086;5.834;2023-04-15T07:46:56;101457.13;;;9.02;72.15
76114;BME280;64845;53.086;5.834;2023-04-15T07:49:21;101461.41;;;9.09;71.81
76114;BME280;64845;53.086;5.834;2023-04-15T07:51:47;101454.13;;;9.17;71.54
76114;BME280;64845;53.086;5.834;2023-04-15T07:54:16;101468.13;;;9.26;71.69
76114;BME280;64845;53.086;5.834;2023-04-15T07:56:41;101460.00;;;9.32;71.61
76114;BME280;64845;53.086;5.834;2023-04-15T07:59:08;101463.50;;;9.34;71.00
76114;BME280;64845;53.086;5.834;2023-04-15T08:01:34;101473.19;;;9.36;70.63
76114;BME280;64845;53.086;5.834;2023-04-15T08:04:00;101474.03;;;9.38;70.55
76114;BME280;64845;53.086;5.834;2023-04-15T08:06:26;101479.31;;;9.42;70.37
76114;BME280;64845;53.086;5.834;2023-04-15T08:08:52;101489.00;;;9.44;70.37
76114;BME280;64845;53.086;5.834;2023-04-15T08:11:18;101479.25;;;9.43;70.10
76114;BME280;64845;53.086;5.834;2023-04-15T08:13:45;101482.81;;;9.44;70.10
76114;BME280;64845;53.086;5.834;2023-04-15T08:16:24;101488.06;;;9.47;70.28
76114;BME280;64845;53.086;5.834;2023-04-15T08:18:54;101494.25;;;9.49;69.74
76114;BME280;64845;53.086;5.834;2023-04-15T08:21:19;101499.53;;;9.50;69.46
76114;BME280;64845;53.086;5.834;2023-04-15T08:23:47;101496.81;;;9.52;69.66
76114;BME280;64845;53.086;5.834;2023-04-15T08:26:13;101494.16;;;9.52;69.15
76114;BME280;64845;53.086;5.834;2023-04-15T08:28:40;101500.38;;;9.52;69.31
76114;BME280;64845;53.086;5.834;2023-04-15T08:31:05;101503.88;;;9.55;69.24
76114;BME280;64845;53.086;5.834;2023-04-15T08:33:31;101515.34;;;9.58;69.46
76114;BME280;64845;53.086;5.834;2023-04-15T08:35:57;101510.84;;;9.60;68.67
76114;BME280;64845;53.086;5.834;2023-04-15T08:38:22;101506.28;;;9.65;68.85
76114;BME280;64845;53.086;5.834;2023-04-15T08:40:48;101504.50;;;9.66;68.40
76114;BME280;64845;53.086;5.834;2023-04-15T08:43:22;101510.53;;;9.73;68.51
76114;BME280;64845;53.086;5.834;2023-04-15T08:45:51;101513.00;;;9.82;68.62
76114;BME280;64845;53.086;5.834;2023-04-15T08:48:17;101518.22;;;9.87;68.22
76114;BME280;64845;53.086;5.834;2023-04-15T08:50:43;101520.81;;;9.90;68.10
76114;BME280;64845;53.086;5.834;2023-04-15T08:53:12;101513.59;;;9.93;68.06
76114;BME280;64845;53.086;5.834;2023-04-15T08:55:43;101527.69;;;9.98;67.97
76114;BME280;64845;53.086;5.834;2023-04-15T08:58:12;101524.16;;;9.98;67.70
76114;BME280;64845;53.086;5.834;2023-04-15T09:00:39;101534.03;;;9.94;67.58
76114;BME280;64845;53.086;5.834;2023-04-15T09:03:05;101534.19;;;9.88;67.42
76114;BME280;64845;53.086;5.834;2023-04-15T09:05:34;101544.88;;;9.88;67.67
76114;BME280;64845;53.086;5.834;2023-04-15T09:08:01;101540.44;;;9.87;67.50
76114;BME280;64845;53.086;5.834;2023-04-15T09:10:30;101553.84;;;9.84;67.53
76114;BME280;64845;53.086;5.834;2023-04-15T09:12:56;101551.19;;;9.84;67.62
76114;BME280;64845;53.086;5.834;2023-04-15T09:15:23;101553.81;;;9.86;67.59
76114;BME280;64845;53.086;5.834;2023-04-15T09:17:49;101550.19;;;9.88;67.61
76114;BME280;64845;53.086;5.834;2023-04-15T09:20:15;101568.81;;;9.90;67.22
76114;BME280;64845;53.086;5.834;2023-04-15T09:22:45;101566.22;;;9.87;67.04
76114;BME280;64845;53.086;5.834;2023-04-15T09:27:50;101569.63;;;9.93;67.36
76114;BME280;64845;53.086;5.834;2023-04-15T09:30:16;101570.50;;;9.94;67.05
76114;BME280;64845;53.086;5.834;2023-04-15T09:32:52;101584.91;;;9.87;66.83
76114;BME280;64845;53.086;5.834;2023-04-15T09:35:19;101576.97;;;9.83;66.85
76114;BME280;64845;53.086;5.834;2023-04-15T09:37:45;101581.44;;;9.81;66.58
76114;BME280;64845;53.086;5.834;2023-04-15T09:40:11;101579.75;;;9.79;66.79
76114;BME280;64845;53.086;5.834;2023-04-15T09:42:53;101583.25;;;9.81;66.69
76114;BME280;64845;53.086;5.834;2023-04-15T09:45:20;101575.13;;;9.86;67.08
76114;BME280;64845;53.086;5.834;2023-04-15T09:47:46;101582.28;;;9.83;66.93
76114;BME280;64845;53.086;5.834;2023-04-15T09:50:11;101584.94;;;9.85;66.84
76114;BME280;64845;53.086;5.834;2023-04-15T09:52:42;101579.56;;;9.87;66.79
76114;BME280;64845;53.086;5.834;2023-04-15T09:55:08;101584.81;;;9.90;67.02
76114;BME280;64845;53.086;5.834;2023-04-15T09:57:37;101590.97;;;9.93;66.62
76114;BME280;64845;53.086;5.834;2023-04-15T10:00:07;101588.34;;;9.92;66.52
76114;BME280;64845;53.086;5.834;2023-04-15T10:02:36;101592.63;;;9.97;66.53
76114;BME280;64845;53.086;5.834;2023-04-15T10:05:01;101597.72;;;10.08;66.04
76114;BME280;64845;53.086;5.834;2023-04-15T10:07:27;101589.31;;;10.25;66.26
76114;BME280;64845;53.086;5.834;2023-04-15T10:09:54;101587.22;;;10.38;66.22
76114;BME280;64845;53.086;5.834;2023-04-15T10:12:21;101598.75;;;10.39;66.16
76114;BME280;64845;53.086;5.834;2023-04-15T10:14:57;101597.03;;;10.36;65.52
76114;BME280;64845;53.086;5.834;2023-04-15T10:17:26;101597.09;;;10.33;65.31
76114;BME280;64845;53.086;5.834;2023-04-15T10:19:53;101609.25;;;10.47;65.27
76114;BME280;64845;53.086;5.834;2023-04-15T10:22:21;101599.13;;;10.60;65.64
76114;BME280;64845;53.086;5.834;2023-04-15T10:24:47;101611.28;;;10.71;65.57
76114;BME280;64845;53.086;5.834;2023-04-15T10:27:14;101609.31;;;10.78;65.41
76114;BME280;64845;53.086;5.834;2023-04-15T10:29:40;101605.72;;;10.79;65.11
76114;BME280;64845;53.086;5.834;2023-04-15T10:32:06;101605.84;;;10.75;64.88
76114;BME280;64845;53.086;5.834;2023-04-15T10:34:33;101617.59;;;10.67;64.48
76114;BME280;64845;53.086;5.834;2023-04-15T10:37:00;101612.56;;;10.56;64.32
76114;BME280;64845;53.086;5.834;2023-04-15T10:42:13;101613.59;;;10.51;64.32
76114;BME280;64845;53.086;5.834;2023-04-15T10:44:49;101617.22;;;10.48;64.44
76114;BME280;64845;53.086;5.834;2023-04-15T10:47:19;101609.16;;;10.50;64.03
76114;BME280;64845;53.086;5.834;2023-04-15T10:52:27;101608.97;;;10.57;63.98
76114;BME280;64845;53.086;5.834;2023-04-15T10:55:11;101612.41;;;10.63;63.83
76114;BME280;64845;53.086;5.834;2023-04-15T10:57:38;101623.72;;;10.71;64.25
76114;BME280;64845;53.086;5.834;2023-04-15T11:02:40;101630.69;;;10.78;64.11
76114;BME280;64845;53.086;5.834;2023-04-15T11:05:06;101639.66;;;10.76;64.29
76114;BME280;64845;53.086;5.834;2023-04-15T11:07:54;101646.13;;;10.67;63.83
76114;BME280;64845;53.086;5.834;2023-04-15T11:12:46;101650.44;;;10.35;64.03
76114;BME280;64845;53.086;5.834;2023-04-15T11:15:34;101640.03;;;10.24;64.00
76114;BME280;64845;53.086;5.834;2023-04-15T11:20:39;101648.41;;;10.08;64.04
76114;BME280;64845;53.086;5.834;2023-04-15T11:23:05;101654.81;;;10.01;64.29
76114;BME280;64845;53.086;5.834;2023-04-15T11:25:33;101664.00;;;9.88;64.14
76114;BME280;64845;53.086;5.834;2023-04-15T11:28:00;101670.25;;;9.87;64.15
76114;BME280;64845;53.086;5.834;2023-04-15T11:30:27;101658.59;;;9.91;64.54
76114;BME280;64845;53.086;5.834;2023-04-15T11:32:56;101658.44;;;9.98;64.35
76114;BME280;64845;53.086;5.834;2023-04-15T11:35:22;101663.69;;;10.02;64.61
76114;BME280;64845;53.086;5.834;2023-04-15T11:37:48;101658.19;;;10.09;64.42
76114;BME280;64845;53.086;5.834;2023-04-15T11:40:15;101658.06;;;10.14;64.26
76114;BME280;64845;53.086;5.834;2023-04-15T11:42:42;101674.06;;;10.14;64.54
76114;BME280;64845;53.086;5.834;2023-04-15T11:45:09;101683.16;;;10.07;64.57
76114;BME280;64845;53.086;5.834;2023-04-15T11:47:37;101673.59;;;9.96;64.50
76114;BME280;64845;53.086;5.834;2023-04-15T11:50:19;101680.75;;;9.94;64.79
76114;BME280;64845;53.086;5.834;2023-04-15T11:52:59;101682.66;;;9.89;64.94
76114;BME280;64845;53.086;5.834;2023-04-15T11:55:29;101690.81;;;9.83;64.55
76114;BME280;64845;53.086;5.834;2023-04-15T12:00:32;101700.00;;;9.70;64.85
76114;BME280;64845;53.086;5.834;2023-04-15T12:03:38;101699.19;;;9.64;65.37
76114;BME280;64845;53.086;5.834;2023-04-15T12:06:12;101706.50;;;9.55;65.08
76114;BME280;64845;53.086;5.834;2023-04-15T12:11:33;101717.34;;;9.45;65.24
76114;BME280;64845;53.086;5.834;2023-04-15T12:16:32;101716.50;;;9.43;65.16
76114;BME280;64845;53.086;5.834;2023-04-15T12:19:03;101714.63;;;9.48;64.96
76114;BME280;64845;53.086;5.834;2023-04-15T12:21:33;101731.31;;;9.58;65.14
76114;BME280;64845;53.086;5.834;2023-04-15T12:24:02;101708.13;;;9.62;65.67
76114;BME280;64845;53.086;5.834;2023-04-15T12:26:49;101724.16;;;9.60;65.59
76114;BME280;64845;53.086;5.834;2023-04-15T12:29:16;101721.53;;;9.59;65.45
76114;BME280;64845;53.086;5.834;2023-04-15T12:31:53;101722.47;;;9.56;65.55
76114;BME280;64845;53.086;5.834;2023-04-15T12:34:33;101732.28;;;9.54;65.71
76114;BME280;64845;53.086;5.834;2023-04-15T12:37:01;101738.72;;;9.44;65.84
76114;BME280;64845;53.086;5.834;2023-04-15T12:39:29;101734.44;;;9.35;65.75
76114;BME280;64845;53.086;5.834;2023-04-15T12:41:55;101739.06;;;9.25;66.00
76114;BME280;64845;53.086;5.834;2023-04-15T12:44:24;101741.91;;;9.16;66.05
76114;BME280;64845;53.086;5.834;2023-04-15T12:46:50;101724.28;;;9.09;66.41
76114;BME280;64845;53.086;5.834;2023-04-15T12:49:17;101745.59;;;9.09;66.07
76114;BME280;64845;53.086;5.834;2023-04-15T12:51:50;101758.94;;;9.09;66.21
76114;BME280;64845;53.086;5.834;2023-04-15T12:54:16;101738.63;;;9.01;66.30
76114;BME280;64845;53.086;5.834;2023-04-15T12:56:42;101746.78;;;8.90;66.94
76114;BME280;64845;53.086;5.834;2023-04-15T12:59:07;101738.84;;;8.87;66.85
76114;BME280;64845;53.086;5.834;2023-04-15T13:01:33;101747.78;;;8.83;66.83
76114;BME280;64845;53.086;5.834;2023-04-15T13:03:58;101751.44;;;8.77;67.53
76114;BME280;64845;53.086;5.834;2023-04-15T13:06:23;101752.47;;;8.70;67.68
76114;BME280;64845;53.086;5.834;2023-04-15T13:08:49;101761.38;;;8.69;67.35
76114;BME280;64845;53.086;5.834;2023-04-15T13:11:15;101761.44;;;8.63;67.77
76114;BME280;64845;53.086;5.834;2023-04-15T13:13:41;101763.34;;;8.55;67.97
76114;BME280;64845;53.086;5.834;2023-04-15T13:16:07;101768.75;;;8.52;68.06
76114;BME280;64845;53.086;5.834;2023-04-15T13:18:32;101767.84;;;8.53;67.82
76114;BME280;64845;53.086;5.834;2023-04-15T13:20:59;101766.97;;;8.51;67.95